sensor_id;sensor_type;location;lat;lon;timestamp;pressure;altitude;pressure_sealevel;temperature;humidity
12471;BME280;36499;46.484;13.832;2023-05-15T00:01:58;92496.25;;;8.70;96.70
12471;BME280;36499;46.484;13.832;2023-05-15T00:04:26;92495.53;;;8.63;96.37
12471;BME280;36499;46.484;13.832;2023-05-15T00:06:53;92498.97;;;8.57;96.18
12471;BME280;36499;46.484;13.832;2023-05-15T00:09:20;92497.97;;;8.58;97.38
12471;BME280;36499;46.484;13.832;2023-05-15T00:11:47;92499.34;;;8.60;97.24
12471;BME280;36499;46.484;13.832;2023-05-15T00:14:14;92492.97;;;8.56;97.83
12471;BME280;36499;46.484;13.832;2023-05-15T00:16:43;92490.53;;;8.43;98.79
12471;BME280;36499;46.484;13.832;2023-05-15T00:19:10;92487.22;;;8.54;98.53
12471;BME280;36499;46.484;13.832;2023-05-15T00:21:37;92488.00;;;8.55;98.32
12471;BME280;36499;46.484;13.832;2023-05-15T00:24:04;92478.44;;;8.55;98.57
12471;BME280;36499;46.484;13.832;2023-05-15T00:26:31;92478.81;;;8.52;97.95
12471;BME280;36499;46.484;13.832;2023-05-15T00:28:59;92479.63;;;8.53;98.02
12471;BME280;36499;46.484;13.832;2023-05-15T00:31:26;92484.19;;;8.57;97.54
12471;BME280;36499;46.484;13.832;2023-05-15T00:33:54;92487.59;;;8.58;97.64
12471;BME280;36499;46.484;13.832;2023-05-15T00:36:21;92484.34;;;8.62;97.71
12471;BME280;36499;46.484;13.832;2023-05-15T00:38:50;92483.91;;;8.65;97.58
12471;BME280;36499;46.484;13.832;2023-05-15T00:41:20;92487.06;;;8.67;97.57
12471;BME280;36499;46.484;13.832;2023-05-15T00:43:49;92485.28;;;8.68;97.20
12471;BME280;36499;46.484;13.832;2023-05-15T00:46:18;92490.06;;;8.71;97.59
12471;BME280;36499;46.484;13.832;2023-05-15T00:48:47;92494.59;;;8.76;97.34
12471;BME280;36499;46.484;13.832;2023-05-15T00:51:17;92495.38;;;8.76;97.17
12471;BME280;36499;46.484;13.832;2023-05-15T00:53:44;92499.38;;;8.79;96.42
12471;BME280;36499;46.484;13.832;2023-05-15T00:56:11;92487.94;;;8.80;96.43
12471;BME280;36499;46.484;13.832;2023-05-15T00:58:39;92485.22;;;8.75;96.48
12471;BME280;36499;46.484;13.832;2023-05-15T01:01:07;92488.03;;;8.73;96.05
12471;BME280;36499;46.484;13.832;2023-05-15T01:03:34;92496.03;;;8.72;96.50
12471;BME280;36499;46.484;13.832;2023-05-15T01:06:01;92491.84;;;8.71;97.02
12471;BME280;36499;46.484;13.832;2023-05-15T01:08:37;92499.06;;;8.68;97.08
12471;BME280;36499;46.484;13.832;2023-05-15T01:11:08;92493.72;;;8.63;96.31
12471;BME280;36499;46.484;13.832;2023-05-15T01:13:35;92491.53;;;8.60;95.83
12471;BME280;36499;46.484;13.832;2023-05-15T01:16:04;92487.94;;;8.61;95.16
12471;BME280;36499;46.484;13.832;2023-05-15T01:18:31;92487.94;;;8.61;95.16
12471;BME280;36499;46.484;13.832;2023-05-15T01:21:26;92484.97;;;8.58;95.12
12471;BME280;36499;46.484;13.832;2023-05-15T01:24:37;92486.22;;;8.55;95.14
12471;BME280;36499;46.484;13.832;2023-05-15T01:27:22;92488.84;;;8.49;95.33
12471;BME280;36499;46.484;13.832;2023-05-15T01:30:03;92495.50;;;8.45;95.64
12471;BME280;36499;46.484;13.832;2023-05-15T01:32:42;92489.72;;;8.43;95.87
12471;BME280;36499;46.484;13.832;2023-05-15T01:35:20;92492.75;;;8.40;95.91
12471;BME280;36499;46.484;13.832;2023-05-15T01:37:56;92479.78;;;8.40;95.54
12471;BME280;36499;46.484;13.832;2023-05-15T01:40:28;92487.56;;;8.40;96.19
12471;BME280;36499;46.484;13.832;2023-05-15T01:43:07;92487.75;;;8.38;96.01
12471;BME280;36499;46.484;13.832;2023-05-15T01:45:36;92495.56;;;8.38;96.42
12471;BME280;36499;46.484;13.832;2023-05-15T01:48:07;92489.34;;;8.39;96.41
12471;BME280;36499;46.484;13.832;2023-05-15T01:50:37;92483.56;;;8.37;96.05
12471;BME280;36499;46.484;13.832;2023-05-15T01:53:07;92491.16;;;8.39;96.49
12471;BME280;36499;46.484;13.832;2023-05-15T01:55:37;92495.56;;;8.38;95.92
12471;BME280;36499;46.484;13.832;2023-05-15T01:58:07;92492.97;;;8.38;96.61
12471;BME280;36499;46.484;13.832;2023-05-15T02:00:35;92493.97;;;8.37;96.33
12471;BME280;36499;46.484;13.832;2023-05-15T02:03:05;92495.00;;;8.36;96.88
12471;BME280;36499;46.484;13.832;2023-05-15T02:05:33;92497.34;;;8.38;96.75
12471;BME280;36499;46.484;13.832;2023-05-15T02:08:02;92498.94;;;8.39;96.34
12471;BME280;36499;46.484;13.832;2023-05-15T02:10:32;92493.38;;;8.35;96.81
12471;BME280;36499;46.484;13.832;2023-05-15T02:13:00;92494.38;;;8.34;96.69
12471;BME280;36499;46.484;13.832;2023-05-15T02:15:29;92498.59;;;8.35;96.56
12471;BME280;36499;46.484;13.832;2023-05-15T02:17:56;92502.78;;;8.36;96.25
12471;BME280;36499;46.484;13.832;2023-05-15T02:20:23;92497.47;;;8.25;96.80
12471;BME280;36499;46.484;13.832;2023-05-15T02:22:50;92497.88;;;8.22;97.77
12471;BME280;36499;46.484;13.832;2023-05-15T02:25:19;92500.06;;;8.25;97.37
12471;BME280;36499;46.484;13.832;2023-05-15T02:27:59;92493.63;;;8.27;97.25
12471;BME280;36499;46.484;13.832;2023-05-15T02:30:37;92495.81;;;8.30;97.39
12471;BME280;36499;46.484;13.832;2023-05-15T02:33:28;92493.47;;;8.29;97.56
12471;BME280;36499;46.484;13.832;2023-05-15T02:36:01;92479.25;;;8.31;97.52
12471;BME280;36499;46.484;13.832;2023-05-15T02:38:36;92480.25;;;8.30;97.41
12471;BME280;36499;46.484;13.832;2023-05-15T02:41:06;92481.41;;;8.34;97.26
12471;BME280;36499;46.484;13.832;2023-05-15T02:43:35;92471.66;;;8.30;97.70
12471;BME280;36499;46.484;13.832;2023-05-15T02:46:05;92482.69;;;8.25;97.60
12471;BME280;36499;46.484;13.832;2023-05-15T02:48:34;92479.84;;;8.27;97.74
12471;BME280;36499;46.484;13.832;2023-05-15T02:51:04;92481.06;;;8.24;98.39
12471;BME280;36499;46.484;13.832;2023-05-15T02:53:32;92474.66;;;8.27;98.44
12471;BME280;36499;46.484;13.832;2023-05-15T02:55:59;92474.06;;;8.31;97.83
12471;BME280;36499;46.484;13.832;2023-05-15T02:58:27;92477.22;;;8.33;98.01
12471;BME280;36499;46.484;13.832;2023-05-15T03:00:54;92482.19;;;8.35;97.32
12471;BME280;36499;46.484;13.832;2023-05-15T03:03:23;92469.22;;;8.35;97.48
12471;BME280;36499;46.484;13.832;2023-05-15T03:05:50;92472.81;;;8.34;97.30
12471;BME280;36499;46.484;13.832;2023-05-15T03:08:17;92462.22;;;8.35;97.54
12471;BME280;36499;46.484;13.832;2023-05-15T03:10:44;92474.63;;;8.33;97.18
12471;BME280;36499;46.484;13.832;2023-05-15T03:13:11;92475.06;;;8.30;97.73
12471;BME280;36499;46.484;13.832;2023-05-15T03:15:38;92478.69;;;8.29;98.08
12471;BME280;36499;46.484;13.832;2023-05-15T03:18:05;92470.22;;;8.34;97.95
12471;BME280;36499;46.484;13.832;2023-05-15T03:20:34;92467.78;;;8.39;97.53
12471;BME280;36499;46.484;13.832;2023-05-15T03:23:01;92468.84;;;8.31;97.52
12471;BME280;36499;46.484;13.832;2023-05-15T03:25:28;92477.59;;;8.37;97.54
12471;BME280;36499;46.484;13.832;2023-05-15T03:27:55;92462.22;;;8.35;98.29
12471;BME280;36499;46.484;13.832;2023-05-15T03:30:22;92461.78;;;8.38;98.07
12471;BME280;36499;46.484;13.832;2023-05-15T03:32:49;92470.66;;;8.31;98.32
12471;BME280;36499;46.484;13.832;2023-05-15T03:35:16;92470.88;;;8.29;98.35
12471;BME280;36499;46.484;13.832;2023-05-15T03:37:45;92468.53;;;8.21;98.86
12471;BME280;36499;46.484;13.832;2023-05-15T03:40:13;92472.31;;;8.18;98.97
12471;BME280;36499;46.484;13.832;2023-05-15T03:42:40;92479.31;;;8.18;99.08
12471;BME280;36499;46.484;13.832;2023-05-15T03:45:08;92475.53;;;8.20;99.45
12471;BME280;36499;46.484;13.832;2023-05-15T03:47:35;92474.34;;;8.16;99.71
12471;BME280;36499;46.484;13.832;2023-05-15T03:50:03;92476.31;;;8.21;99.51
12471;BME280;36499;46.484;13.832;2023-05-15T03:52:30;92472.19;;;8.13;99.30
12471;BME280;36499;46.484;13.832;2023-05-15T03:54:59;92475.28;;;8.22;99.25
12471;BME280;36499;46.484;13.832;2023-05-15T03:57:26;92472.69;;;8.22;99.53
12471;BME280;36499;46.484;13.832;2023-05-15T03:59:53;92478.13;;;8.20;99.76
12471;BME280;36499;46.484;13.832;2023-05-15T04:02:20;92475.88;;;8.24;99.12
12471;BME280;36499;46.484;13.832;2023-05-15T04:04:47;92475.06;;;8.30;99.05
12471;BME280;36499;46.484;13.832;2023-05-15T04:07:14;92482.63;;;8.32;99.43
12471;BME280;36499;46.484;13.832;2023-05-15T04:09:41;92477.44;;;8.32;99.63
12471;BME280;36499;46.484;13.832;2023-05-15T04:12:09;92475.28;;;8.29;99.73
12471;BME280;36499;46.484;13.832;2023-05-15T04:14:36;92477.44;;;8.32;99.90
12471;BME280;36499;46.484;13.832;2023-05-15T04:17:04;92480.28;;;8.24;99.45
12471;BME280;36499;46.484;13.832;2023-05-15T04:19:31;92478.84;;;8.28;100.00
12471;BME280;36499;46.484;13.832;2023-05-15T04:21:58;92480.25;;;8.30;100.00
12471;BME280;36499;46.484;13.832;2023-05-15T04:24:25;92482.81;;;8.37;100.00
12471;BME280;36499;46.484;13.832;2023-05-15T04:26:52;92482.19;;;8.35;99.77
12471;BME280;36499;46.484;13.832;2023-05-15T04:29:20;92483.00;;;8.35;100.00
12471;BME280;36499;46.484;13.832;2023-05-15T04:31:47;92483.88;;;8.29;100.00
12471;BME280;36499;46.484;13.832;2023-05-15T04:34:14;92480.25;;;8.30;100.00
12471;BME280;36499;46.484;13.832;2023-05-15T04:36:41;92477.66;;;8.30;100.00
12471;BME280;36499;46.484;13.832;2023-05-15T04:39:08;92482.13;;;8.41;100.00
12471;BME280;36499;46.484;13.832;2023-05-15T04:41:36;92472.28;;;8.50;99.92
12471;BME280;36499;46.484;13.832;2023-05-15T04:44:03;92483.97;;;8.41;100.00
12471;BME280;36499;46.484;13.832;2023-05-15T04:46:32;92486.50;;;8.47;100.00
12471;BME280;36499;46.484;13.832;2023-05-15T04:49:01;92483.09;;;8.47;99.99
12471;BME280;36499;46.484;13.832;2023-05-15T04:51:28;92477.75;;;8.42;100.00
12471;BME280;36499;46.484;13.832;2023-05-15T04:53:55;92482.84;;;8.30;100.00
12471;BME280;36499;46.484;13.832;2023-05-15T04:56:22;92487.75;;;8.38;100.00
12471;BME280;36499;46.484;13.832;2023-05-15T04:58:50;92476.38;;;8.57;100.00
12471;BME280;36499;46.484;13.832;2023-05-15T05:01:17;92481.03;;;8.74;100.00
12471;BME280;36499;46.484;13.832;2023-05-15T05:03:45;92483.25;;;8.88;99.39
12471;BME280;36499;46.484;13.832;2023-05-15T05:06:12;92485.78;;;8.95;99.24
12471;BME280;36499;46.484;13.832;2023-05-15T05:08:39;92471.50;;;9.04;99.04
12471;BME280;36499;46.484;13.832;2023-05-15T05:11:06;92473.25;;;9.22;98.08
12471;BME280;36499;46.484;13.832;2023-05-15T05:13:33;92482.75;;;9.16;96.10
12471;BME280;36499;46.484;13.832;2023-05-15T05:16:00;92471.91;;;9.19;96.71
12471;BME280;36499;46.484;13.832;2023-05-15T05:18:29;92476.31;;;9.19;97.01
12471;BME280;36499;46.484;13.832;2023-05-15T05:21:01;92480.72;;;9.18;96.56
12471;BME280;36499;46.484;13.832;2023-05-15T05:23:29;92475.69;;;9.05;97.86
12471;BME280;36499;46.484;13.832;2023-05-15T05:25:57;92471.50;;;9.04;97.99
12471;BME280;36499;46.484;13.832;2023-05-15T05:28:24;92470.69;;;9.03;98.28
12471;BME280;36499;46.484;13.832;2023-05-15T05:30:51;92474.00;;;9.10;99.12
12471;BME280;36499;46.484;13.832;2023-05-15T05:33:18;92469.16;;;9.14;100.00
12471;BME280;36499;46.484;13.832;2023-05-15T05:35:45;92467.00;;;9.11;99.77
12471;BME280;36499;46.484;13.832;2023-05-15T05:38:14;92464.94;;;9.31;98.98
12471;BME280;36499;46.484;13.832;2023-05-15T05:40:41;92456.84;;;9.39;98.29
12471;BME280;36499;46.484;13.832;2023-05-15T05:43:08;92455.06;;;9.51;98.63
12471;BME280;36499;46.484;13.832;2023-05-15T05:45:35;92444.25;;;9.66;97.15
12471;BME280;36499;46.484;13.832;2023-05-15T05:48:02;92443.84;;;9.81;95.87
12471;BME280;36499;46.484;13.832;2023-05-15T05:50:29;92443.59;;;9.82;94.82
12471;BME280;36499;46.484;13.832;2023-05-15T05:52:56;92447.25;;;9.93;95.21
12471;BME280;36499;46.484;13.832;2023-05-15T05:55:25;92445.78;;;10.08;96.12
12471;BME280;36499;46.484;13.832;2023-05-15T05:57:52;92450.03;;;10.21;95.08
12471;BME280;36499;46.484;13.832;2023-05-15T06:00:20;92448.03;;;10.05;93.91
12471;BME280;36499;46.484;13.832;2023-05-15T06:02:47;92434.69;;;10.13;94.67
12471;BME280;36499;46.484;13.832;2023-05-15T06:05:14;92434.53;;;10.26;94.45
12471;BME280;36499;46.484;13.832;2023-05-15T06:07:41;92439.47;;;10.28;91.82
12471;BME280;36499;46.484;13.832;2023-05-15T06:10:09;92431.44;;;10.41;91.17
12471;BME280;36499;46.484;13.832;2023-05-15T06:12:38;92427.38;;;10.56;89.53
12471;BME280;36499;46.484;13.832;2023-05-15T06:15:07;92431.19;;;10.66;89.26
12471;BME280;36499;46.484;13.832;2023-05-15T06:17:34;92432.75;;;10.90;88.29
12471;BME280;36499;46.484;13.832;2023-05-15T06:20:01;92434.78;;;10.99;85.77
12471;BME280;36499;46.484;13.832;2023-05-15T06:22:29;92430.78;;;11.08;84.67
12471;BME280;36499;46.484;13.832;2023-05-15T06:24:57;92428.34;;;11.19;82.40
12471;BME280;36499;46.484;13.832;2023-05-15T06:27:25;92420.16;;;11.27;83.21
12471;BME280;36499;46.484;13.832;2023-05-15T06:29:53;92420.63;;;11.52;82.83
12471;BME280;36499;46.484;13.832;2023-05-15T06:32:21;92420.00;;;11.62;82.71
12471;BME280;36499;46.484;13.832;2023-05-15T06:34:48;92427.59;;;11.75;84.51
12471;BME280;36499;46.484;13.832;2023-05-15T06:37:15;92421.50;;;11.86;81.41
12471;BME280;36499;46.484;13.832;2023-05-15T06:39:42;92426.25;;;12.06;82.38
12471;BME280;36499;46.484;13.832;2023-05-15T06:42:09;92410.72;;;11.99;81.61
12471;BME280;36499;46.484;13.832;2023-05-15T06:44:36;92411.84;;;12.20;80.80
12471;BME280;36499;46.484;13.832;2023-05-15T06:47:05;92404.63;;;12.27;79.25
12471;BME280;36499;46.484;13.832;2023-05-15T06:49:32;92411.28;;;12.34;78.46
12471;BME280;36499;46.484;13.832;2023-05-15T06:51:59;92407.47;;;12.42;77.69
12471;BME280;36499;46.484;13.832;2023-05-15T06:54:26;92411.72;;;12.48;77.63
12471;BME280;36499;46.484;13.832;2023-05-15T06:56:53;92405.16;;;12.45;78.29
12471;BME280;36499;46.484;13.832;2023-05-15T06:59:20;92401.72;;;12.62;77.89
12471;BME280;36499;46.484;13.832;2023-05-15T07:01:47;92394.69;;;12.84;76.96
12471;BME280;36499;46.484;13.832;2023-05-15T07:04:16;92390.97;;;12.80;74.67
12471;BME280;36499;46.484;13.832;2023-05-15T07:06:43;92395.78;;;12.88;74.41
12471;BME280;36499;46.484;13.832;2023-05-15T07:09:12;92395.28;;;12.91;73.26
12471;BME280;36499;46.484;13.832;2023-05-15T07:11:39;92399.41;;;12.87;73.75
12471;BME280;36499;46.484;13.832;2023-05-15T07:14:06;92391.34;;;13.10;74.11
12471;BME280;36499;46.484;13.832;2023-05-15T07:16:33;92387.13;;;13.09;73.26
12471;BME280;36499;46.484;13.832;2023-05-15T07:19:00;92394.03;;;13.15;73.65
12471;BME280;36499;46.484;13.832;2023-05-15T07:21:29;92386.38;;;13.35;74.51
12471;BME280;36499;46.484;13.832;2023-05-15T07:23:57;92391.63;;;13.35;72.83
12471;BME280;36499;46.484;13.832;2023-05-15T07:26:24;92395.16;;;13.73;73.61
12471;BME280;36499;46.484;13.832;2023-05-15T07:28:51;92391.44;;;14.01;71.03
12471;BME280;36499;46.484;13.832;2023-05-15T07:31:19;92394.34;;;14.04;70.48
12471;BME280;36499;46.484;13.832;2023-05-15T07:33:46;92398.41;;;14.17;68.10
12471;BME280;36499;46.484;13.832;2023-05-15T07:36:13;92393.44;;;14.20;66.95
12471;BME280;36499;46.484;13.832;2023-05-15T07:38:41;92385.63;;;14.25;65.40
12471;BME280;36499;46.484;13.832;2023-05-15T07:41:08;92384.81;;;14.25;64.20
12471;BME280;36499;46.484;13.832;2023-05-15T07:43:35;92394.31;;;14.68;64.79
12471;BME280;36499;46.484;13.832;2023-05-15T07:46:02;92391.03;;;14.46;63.26
12471;BME280;36499;46.484;13.832;2023-05-15T07:48:30;92386.13;;;14.59;62.82
12471;BME280;36499;46.484;13.832;2023-05-15T07:50:57;92396.88;;;14.58;62.83
12471;BME280;36499;46.484;13.832;2023-05-15T07:53:24;92388.66;;;14.91;63.95
12471;BME280;36499;46.484;13.832;2023-05-15T07:55:52;92405.75;;;14.99;61.11
12471;BME280;36499;46.484;13.832;2023-05-15T07:58:19;92406.34;;;15.16;61.37
12471;BME280;36499;46.484;13.832;2023-05-15T08:00:47;92397.47;;;15.37;60.66
12471;BME280;36499;46.484;13.832;2023-05-15T08:03:15;92405.63;;;15.35;59.50
12471;BME280;36499;46.484;13.832;2023-05-15T08:05:42;92411.00;;;15.56;57.81
12471;BME280;36499;46.484;13.832;2023-05-15T08:08:09;92398.38;;;15.68;57.33
12471;BME280;36499;46.484;13.832;2023-05-15T08:10:36;92406.88;;;16.05;57.66
12471;BME280;36499;46.484;13.832;2023-05-15T08:13:04;92413.69;;;16.16;56.66
12471;BME280;36499;46.484;13.832;2023-05-15T08:15:31;92413.41;;;15.93;56.83
12471;BME280;36499;46.484;13.832;2023-05-15T08:17:58;92418.44;;;16.19;56.12
12471;BME280;36499;46.484;13.832;2023-05-15T08:20:26;92413.69;;;16.37;56.23
12471;BME280;36499;46.484;13.832;2023-05-15T08:22:53;92409.72;;;16.49;54.26
12471;BME280;36499;46.484;13.832;2023-05-15T08:25:20;92410.53;;;16.45;53.72
12471;BME280;36499;46.484;13.832;2023-05-15T08:27:47;92405.28;;;16.50;52.76
12471;BME280;36499;46.484;13.832;2023-05-15T08:30:15;92408.69;;;16.45;54.03
12471;BME280;36499;46.484;13.832;2023-05-15T08:32:43;92405.78;;;16.67;53.61
12471;BME280;36499;46.484;13.832;2023-05-15T08:35:10;92397.09;;;16.51;50.77
12471;BME280;36499;46.484;13.832;2023-05-15T08:37:37;92396.59;;;16.54;51.49
12471;BME280;36499;46.484;13.832;2023-05-15T08:40:06;92389.44;;;16.80;49.69
12471;BME280;36499;46.484;13.832;2023-05-15T08:42:42;92376.31;;;16.60;50.48
12471;BME280;36499;46.484;13.832;2023-05-15T08:45:12;92382.63;;;16.49;49.58
12471;BME280;36499;46.484;13.832;2023-05-15T08:47:42;92370.81;;;16.56;49.72
12471;BME280;36499;46.484;13.832;2023-05-15T08:50:11;92379.69;;;16.91;49.85
12471;BME280;36499;46.484;13.832;2023-05-15T08:52:41;92384.16;;;16.95;49.65
12471;BME280;36499;46.484;13.832;2023-05-15T08:55:09;92379.75;;;17.40;49.50
12471;BME280;36499;46.484;13.832;2023-05-15T08:57:37;92379.25;;;17.27;49.70
12471;BME280;36499;46.484;13.832;2023-05-15T09:00:06;92385.19;;;17.04;49.76
12471;BME280;36499;46.484;13.832;2023-05-15T09:02:34;92385.53;;;17.42;49.49
12471;BME280;36499;46.484;13.832;2023-05-15T09:05:04;92384.16;;;17.54;49.62
12471;BME280;36499;46.484;13.832;2023-05-15T09:07:33;92378.81;;;17.69;49.84
12471;BME280;36499;46.484;13.832;2023-05-15T09:10:02;92383.09;;;17.60;47.52
12471;BME280;36499;46.484;13.832;2023-05-15T09:12:33;92378.63;;;17.56;48.39
12471;BME280;36499;46.484;13.832;2023-05-15T09:15:12;92373.34;;;17.51;50.14
12471;BME280;36499;46.484;13.832;2023-05-15T09:17:40;92370.00;;;17.89;47.84
12471;BME280;36499;46.484;13.832;2023-05-15T09:20:25;92380.28;;;17.37;45.86
12471;BME280;36499;46.484;13.832;2023-05-15T09:22:52;92388.69;;;17.39;46.96
12471;BME280;36499;46.484;13.832;2023-05-15T09:25:37;92387.53;;;17.70;46.94
12471;BME280;36499;46.484;13.832;2023-05-15T09:28:05;92387.09;;;17.97;45.81
12471;BME280;36499;46.484;13.832;2023-05-15T09:30:36;92384.31;;;18.46;47.70
12471;BME280;36499;46.484;13.832;2023-05-15T09:33:03;92381.66;;;18.17;45.03
12471;BME280;36499;46.484;13.832;2023-05-15T09:35:34;92378.28;;;18.11;43.82
12471;BME280;36499;46.484;13.832;2023-05-15T09:38:07;92383.13;;;18.33;42.76
12471;BME280;36499;46.484;13.832;2023-05-15T09:40:35;92388.06;;;18.11;42.06
12471;BME280;36499;46.484;13.832;2023-05-15T09:43:02;92384.38;;;18.41;44.89
12471;BME280;36499;46.484;13.832;2023-05-15T09:45:29;92387.47;;;18.53;44.36
12471;BME280;36499;46.484;13.832;2023-05-15T09:47:59;92395.56;;;18.61;44.99
12471;BME280;36499;46.484;13.832;2023-05-15T09:50:34;92394.97;;;18.69;43.77
12471;BME280;36499;46.484;13.832;2023-05-15T09:53:02;92399.91;;;18.76;44.18
12471;BME280;36499;46.484;13.832;2023-05-15T09:55:31;92396.31;;;18.67;42.53
12471;BME280;36499;46.484;13.832;2023-05-15T09:58:07;92398.84;;;19.06;47.73
12471;BME280;36499;46.484;13.832;2023-05-15T10:00:37;92407.38;;;19.22;44.92
12471;BME280;36499;46.484;13.832;2023-05-15T10:03:05;92414.84;;;19.14;44.61
12471;BME280;36499;46.484;13.832;2023-05-15T10:05:34;92397.44;;;19.13;46.28
12471;BME280;36499;46.484;13.832;2023-05-15T10:08:02;92397.19;;;19.34;47.19
12471;BME280;36499;46.484;13.832;2023-05-15T10:10:30;92400.69;;;19.53;44.52
12471;BME280;36499;46.484;13.832;2023-05-15T10:13:00;92406.06;;;19.48;45.14
12471;BME280;36499;46.484;13.832;2023-05-15T10:15:31;92400.78;;;19.48;42.88
12471;BME280;36499;46.484;13.832;2023-05-15T10:17:59;92395.47;;;19.48;43.31
12471;BME280;36499;46.484;13.832;2023-05-15T10:20:26;92383.91;;;19.39;43.32
12471;BME280;36499;46.484;13.832;2023-05-15T10:22:56;92386.56;;;19.39;43.14
12471;BME280;36499;46.484;13.832;2023-05-15T10:25:32;92392.09;;;19.42;44.21
12471;BME280;36499;46.484;13.832;2023-05-15T10:28:00;92393.94;;;19.42;43.04
12471;BME280;36499;46.484;13.832;2023-05-15T10:30:28;92393.91;;;19.47;43.20
12471;BME280;36499;46.484;13.832;2023-05-15T10:32:57;92392.69;;;19.58;45.12
12471;BME280;36499;46.484;13.832;2023-05-15T10:35:26;92401.84;;;19.66;44.18
12471;BME280;36499;46.484;13.832;2023-05-15T10:37:56;92397.16;;;19.62;43.77
12471;BME280;36499;46.484;13.832;2023-05-15T10:40:24;92398.91;;;19.67;45.26
12471;BME280;36499;46.484;13.832;2023-05-15T10:42:53;92400.78;;;19.67;45.61
12471;BME280;36499;46.484;13.832;2023-05-15T10:45:22;92397.94;;;19.63;44.88
12471;BME280;36499;46.484;13.832;2023-05-15T10:47:50;92393.81;;;19.52;46.21
12471;BME280;36499;46.484;13.832;2023-05-15T10:50:18;92400.19;;;19.27;45.43
12471;BME280;36499;46.484;13.832;2023-05-15T10:52:49;92412.22;;;19.14;47.54
12471;BME280;36499;46.484;13.832;2023-05-15T10:55:18;92408.91;;;19.28;46.55
12471;BME280;36499;46.484;13.832;2023-05-15T10:57:46;92396.47;;;19.28;45.84
12471;BME280;36499;46.484;13.832;2023-05-15T11:00:27;92408.09;;;19.27;45.56
12471;BME280;36499;46.484;13.832;2023-05-15T11:02:56;92413.13;;;19.29;46.29
12471;BME280;36499;46.484;13.832;2023-05-15T11:05:24;92419.88;;;19.16;45.52
12471;BME280;36499;46.484;13.832;2023-05-15T11:08:23;92415.59;;;19.20;46.28
12471;BME280;36499;46.484;13.832;2023-05-15T11:10:53;92413.34;;;19.08;43.34
12471;BME280;36499;46.484;13.832;2023-05-15T11:13:21;92416.97;;;18.89;43.42
12471;BME280;36499;46.484;13.832;2023-05-15T11:15:48;92419.78;;;18.68;40.61
12471;BME280;36499;46.484;13.832;2023-05-15T11:18:15;92407.88;;;19.00;41.28
12471;BME280;36499;46.484;13.832;2023-05-15T11:21:05;92401.38;;;19.16;43.73
12471;BME280;36499;46.484;13.832;2023-05-15T11:23:39;92405.19;;;19.52;45.00
12471;BME280;36499;46.484;13.832;2023-05-15T11:26:08;92393.41;;;19.82;42.40
12471;BME280;36499;46.484;13.832;2023-05-15T11:28:41;92391.38;;;20.35;42.96
12471;BME280;36499;46.484;13.832;2023-05-15T11:31:12;92400.00;;;20.73;42.43
12471;BME280;36499;46.484;13.832;2023-05-15T11:33:40;92401.22;;;20.81;39.12
12471;BME280;36499;46.484;13.832;2023-05-15T11:36:07;92399.22;;;20.73;42.33
12471;BME280;36499;46.484;13.832;2023-05-15T11:38:38;92404.25;;;20.55;42.15
12471;BME280;36499;46.484;13.832;2023-05-15T11:41:19;92397.22;;;20.13;42.48
12471;BME280;36499;46.484;13.832;2023-05-15T11:43:49;92394.94;;;19.70;42.87
12471;BME280;36499;46.484;13.832;2023-05-15T11:46:16;92401.03;;;19.89;43.02
12471;BME280;36499;46.484;13.832;2023-05-15T11:48:45;92391.19;;;20.27;42.41
12471;BME280;36499;46.484;13.832;2023-05-15T11:51:19;92375.09;;;20.88;44.16
12471;BME280;36499;46.484;13.832;2023-05-15T11:53:49;92374.44;;;20.96;39.93
12471;BME280;36499;46.484;13.832;2023-05-15T11:56:19;92374.31;;;20.87;38.00
12471;BME280;36499;46.484;13.832;2023-05-15T11:58:48;92382.72;;;21.22;41.17
12471;BME280;36499;46.484;13.832;2023-05-15T12:01:16;92377.09;;;21.64;40.15
12471;BME280;36499;46.484;13.832;2023-05-15T12:03:46;92366.28;;;21.06;38.90
12471;BME280;36499;46.484;13.832;2023-05-15T12:06:14;92382.00;;;21.02;37.29
12471;BME280;36499;46.484;13.832;2023-05-15T12:08:42;92368.06;;;21.24;40.99
12471;BME280;36499;46.484;13.832;2023-05-15T12:11:11;92377.91;;;21.24;40.48
12471;BME280;36499;46.484;13.832;2023-05-15T12:13:39;92373.78;;;21.18;38.77
12471;BME280;36499;46.484;13.832;2023-05-15T12:16:06;92362.38;;;21.17;38.97
12471;BME280;36499;46.484;13.832;2023-05-15T12:18:33;92370.78;;;21.05;39.65
12471;BME280;36499;46.484;13.832;2023-05-15T12:21:00;92366.50;;;21.37;42.06
12471;BME280;36499;46.484;13.832;2023-05-15T12:23:31;92367.47;;;21.27;40.50
12471;BME280;36499;46.484;13.832;2023-05-15T12:26:00;92344.56;;;20.90;39.68
12471;BME280;36499;46.484;13.832;2023-05-15T12:28:30;92352.91;;;20.97;40.99
12471;BME280;36499;46.484;13.832;2023-05-15T12:30:59;92358.66;;;20.58;38.35
12471;BME280;36499;46.484;13.832;2023-05-15T12:33:26;92360.66;;;20.80;38.83
12471;BME280;36499;46.484;13.832;2023-05-15T12:35:55;92350.41;;;20.60;39.20
12471;BME280;36499;46.484;13.832;2023-05-15T12:38:23;92359.28;;;20.37;38.69
12471;BME280;36499;46.484;13.832;2023-05-15T12:40:51;92346.97;;;20.59;41.13
12471;BME280;36499;46.484;13.832;2023-05-15T12:43:23;92349.19;;;20.98;38.37
12471;BME280;36499;46.484;13.832;2023-05-15T12:45:52;92349.53;;;21.38;40.30
12471;BME280;36499;46.484;13.832;2023-05-15T12:48:21;92341.06;;;21.85;44.15
12471;BME280;36499;46.484;13.832;2023-05-15T12:50:48;92343.16;;;22.11;41.04
12471;BME280;36499;46.484;13.832;2023-05-15T12:53:16;92346.56;;;22.03;39.53
12471;BME280;36499;46.484;13.832;2023-05-15T12:55:45;92352.09;;;21.79;39.73
12471;BME280;36499;46.484;13.832;2023-05-15T12:58:14;92357.22;;;21.62;41.51
12471;BME280;36499;46.484;13.832;2023-05-15T13:00:44;92350.31;;;21.25;38.98
12471;BME280;36499;46.484;13.832;2023-05-15T13:03:13;92357.66;;;21.28;41.16
12471;BME280;36499;46.484;13.832;2023-05-15T13:05:43;92354.91;;;20.92;40.74